createdAt,value
2019-02-08T00:02:10.070Z,10.80
2019-02-08T00:04:40.581Z,10.47
2019-02-08T00:07:11.887Z,8.10
2019-02-08T00:09:42.484Z,8.80
2019-02-08T00:12:12.707Z,10.10
2019-02-08T00:14:42.999Z,10.47
2019-02-08T00:17:13.276Z,8.43
2019-02-08T00:19:43.594Z,10.73
2019-02-08T00:22:14.265Z,10.83
2019-02-08T00:24:45.571Z,11.77
2019-02-08T00:27:15.860Z,7.93
2019-02-08T00:29:46.209Z,14.70
2019-02-08T00:32:16.431Z,13.43
2019-02-08T00:34:46.640Z,13.87
2019-02-08T00:37:17.052Z,11.57
2019-02-08T00:39:47.660Z,12.50
2019-02-08T00:42:17.927Z,12.13
2019-02-08T00:44:48.423Z,15.47
2019-02-08T00:47:18.615Z,15.73
2019-02-08T00:49:48.861Z,11.50
2019-02-08T00:52:21.667Z,12.17
2019-02-08T00:54:52.578Z,10.73
2019-02-08T00:57:22.780Z,11.03
2019-02-08T00:59:53.014Z,11.80
2019-02-08T01:02:23.363Z,12.30
2019-02-08T01:04:54.164Z,14.20
2019-02-08T01:07:24.384Z,10.10
2019-02-08T01:09:55.074Z,14.37
2019-02-08T01:12:25.312Z,9.70
2019-02-08T01:14:55.476Z,13.93
2019-02-08T01:17:26.146Z,12.40
2019-02-08T01:19:56.547Z,9.33
2019-02-08T01:22:28.630Z,11.30
2019-02-08T01:24:58.804Z,11.70
2019-02-08T01:27:29.100Z,14.07
2019-02-08T01:29:59.367Z,11.40
2019-02-08T01:32:29.703Z,10.87
2019-02-08T01:35:00.403Z,10.27
2019-02-08T01:37:30.741Z,13.93
2019-02-08T01:40:01.091Z,9.67
2019-02-08T01:42:31.323Z,12.10
2019-02-08T01:45:01.637Z,9.53
2019-02-08T01:47:31.886Z,10.57
2019-02-08T01:50:02.201Z,11.60
2019-02-08T01:52:32.382Z,13.30
2019-02-08T01:55:02.790Z,9.77
2019-02-08T01:57:33.337Z,13.97
2019-02-08T02:00:05.186Z,10.27
2019-02-08T02:02:35.395Z,11.30
2019-02-08T02:05:06.787Z,9.60
2019-02-08T02:07:37.405Z,8.73
2019-02-08T02:10:10.620Z,11.87
2019-02-08T02:12:40.859Z,12.37
2019-02-08T02:15:11.557Z,10.90
2019-02-08T02:17:42.097Z,9.57
2019-02-08T02:20:13.549Z,12.67
2019-02-08T02:22:43.795Z,10.97
2019-02-08T02:25:17.610Z,10.77
2019-02-08T02:27:47.861Z,8.57
2019-02-08T02:30:21.698Z,10.17
2019-02-08T02:32:51.997Z,10.33
2019-02-08T02:35:22.446Z,10.77
2019-02-08T02:37:52.835Z,13.23
2019-02-08T02:40:23.841Z,10.93
2019-02-08T02:42:55.170Z,9.03
2019-02-08T02:45:31.024Z,9.30
2019-02-08T02:48:01.653Z,14.30
2019-02-08T02:50:31.937Z,8.30
2019-02-08T02:53:02.172Z,11.53
2019-02-08T02:55:32.982Z,11.80
2019-02-08T02:58:03.304Z,11.17
2019-02-08T03:00:36.881Z,10.70
2019-02-08T03:03:07.491Z,13.83
2019-02-08T03:05:38.511Z,11.97
2019-02-08T03:08:09.631Z,13.50
2019-02-08T03:10:40.472Z,9.37
2019-02-08T03:13:11.587Z,9.97
2019-02-08T03:15:42.217Z,12.63
2019-02-08T03:18:12.969Z,11.80
2019-02-08T03:20:43.173Z,8.73
2019-02-08T03:23:14.066Z,9.57
2019-02-08T03:25:44.414Z,11.70
2019-02-08T03:28:14.938Z,10.23
2019-02-08T03:30:51.021Z,12.10
2019-02-08T03:33:21.678Z,11.13
2019-02-08T03:35:52.086Z,8.33
2019-02-08T03:38:23.856Z,7.13
2019-02-08T03:40:54.084Z,14.00
2019-02-08T03:43:24.302Z,8.67
2019-02-08T03:45:54.491Z,11.47
2019-02-08T03:48:24.597Z,7.97
2019-02-08T03:50:54.813Z,9.80
2019-02-08T03:53:25.403Z,10.30
2019-02-08T03:55:58.369Z,6.13
2019-02-08T03:58:27.869Z,8.27
2019-02-08T04:01:00.794Z,7.57
2019-02-08T04:03:31.176Z,9.43
2019-02-08T04:06:01.725Z,8.00
2019-02-08T04:08:31.926Z,10.83
2019-02-08T04:11:02.213Z,10.73
2019-02-08T04:13:32.520Z,9.57
2019-02-08T04:16:02.715Z,12.43
2019-02-08T04:18:33.754Z,12.77
2019-02-08T04:21:04.042Z,9.23
2019-02-08T04:23:34.626Z,10.50
2019-02-08T04:26:04.813Z,12.47
2019-02-08T04:28:35.035Z,12.23
2019-02-08T04:31:05.679Z,9.77
2019-02-08T04:33:35.912Z,12.50
2019-02-08T04:36:06.134Z,9.10
2019-02-08T04:38:36.320Z,10.07
2019-02-08T04:41:06.633Z,10.53
2019-02-08T04:43:37.059Z,10.33
2019-02-08T04:46:07.688Z,7.37
2019-02-08T04:48:37.888Z,7.30
2019-02-08T04:51:08.361Z,8.30
2019-02-08T04:53:38.565Z,11.07
2019-02-08T04:56:08.809Z,9.80
2019-02-08T04:58:38.990Z,9.37
2019-02-08T05:01:09.304Z,10.43
2019-02-08T05:03:39.544Z,11.90
2019-02-08T05:06:10.863Z,10.80
2019-02-08T05:08:41.109Z,9.97
2019-02-08T05:11:11.349Z,8.33
2019-02-08T05:13:42.020Z,11.20
2019-02-08T05:16:12.718Z,10.63
2019-02-08T05:18:42.930Z,10.30
2019-02-08T05:21:13.209Z,8.67
2019-02-08T05:23:43.408Z,8.60
2019-02-08T05:26:13.814Z,10.73
2019-02-08T05:28:44.391Z,11.37
2019-02-08T05:31:14.560Z,9.70
2019-02-08T05:33:44.940Z,11.73
2019-02-08T05:36:15.170Z,12.40
2019-02-08T05:38:45.380Z,7.75
2019-02-08T05:41:15.686Z,10.10
2019-02-08T05:43:45.847Z,10.90
2019-02-08T05:46:16.109Z,10.60
2019-02-08T05:48:46.319Z,8.90
2019-02-08T05:51:16.701Z,8.77
2019-02-08T05:53:46.958Z,10.87
2019-02-08T05:56:17.183Z,7.83
2019-02-08T05:58:47.765Z,6.80
2019-02-08T06:01:18.288Z,10.10
2019-02-08T06:03:48.619Z,9.33
2019-02-08T06:06:18.888Z,8.53
2019-02-08T06:08:49.056Z,11.67
2019-02-08T06:11:19.715Z,10.03
2019-02-08T06:13:51.500Z,12.10
2019-02-08T06:16:21.717Z,11.83
2019-02-08T06:18:52.423Z,10.47
2019-02-08T06:21:23.341Z,9.23
2019-02-08T06:23:53.605Z,8.27
2019-02-08T06:26:23.834Z,10.83
2019-02-08T06:28:54.007Z,11.10
2019-02-08T06:31:24.333Z,10.07
2019-02-08T06:33:54.855Z,10.23
2019-02-08T06:36:25.141Z,11.30
2019-02-08T06:38:55.358Z,10.17
2019-02-08T06:41:25.934Z,10.53
2019-02-08T06:43:56.155Z,10.73
2019-02-08T06:46:26.379Z,10.77
2019-02-08T06:48:56.529Z,12.70
2019-02-08T06:51:26.789Z,10.30
2019-02-08T06:53:57.273Z,10.13
2019-02-08T06:56:45.450Z,9.53
2019-02-08T06:59:30.382Z,9.23
2019-02-08T07:02:41.230Z,9.57
2019-02-08T07:05:39.231Z,11.60
2019-02-08T07:08:30.816Z,8.80
2019-02-08T07:11:28.933Z,8.87
2019-02-08T07:14:17.657Z,9.37
2019-02-08T07:17:07.448Z,12.13
2019-02-08T07:20:03.287Z,10.57
2019-02-08T07:22:46.602Z,7.50
2019-02-08T07:25:23.097Z,8.73
2019-02-08T07:28:02.582Z,8.57
2019-02-08T07:30:59.794Z,8.53
2019-02-08T07:33:43.832Z,9.47
2019-02-08T07:36:34.644Z,9.70
2019-02-08T07:39:32.613Z,12.10
2019-02-08T07:42:22.415Z,11.23
2019-02-08T07:45:04.592Z,9.50
2019-02-08T07:47:40.256Z,8.97
2019-02-08T07:50:47.016Z,10.70
2019-02-08T07:53:54.568Z,9.13
2019-02-08T07:56:38.877Z,8.10
2019-02-08T07:59:21.737Z,11.03
2019-02-08T08:02:09.811Z,9.30
2019-02-08T08:05:02.136Z,7.43
2019-02-08T08:07:51.438Z,10.37
2019-02-08T08:10:36.160Z,9.93
2019-02-08T08:13:24.528Z,11.10
2019-02-08T08:16:17.213Z,7.83
2019-02-08T08:19:25.480Z,10.27
2019-02-08T08:22:30.040Z,7.73
2019-02-08T08:25:33.919Z,10.87
2019-02-08T08:28:23.987Z,10.77
2019-02-08T08:31:01.257Z,8.20
2019-02-08T08:33:40.695Z,11.57
2019-02-08T08:36:41.643Z,8.80
2019-02-08T08:39:43.521Z,9.03
2019-02-08T08:42:29.617Z,8.70
2019-02-08T08:45:33.450Z,9.60
2019-02-08T08:48:50.431Z,8.13
2019-02-08T08:51:47.092Z,10.70
2019-02-08T08:54:59.736Z,10.07
2019-02-08T08:58:08.847Z,7.33
2019-02-08T09:01:20.309Z,7.83
2019-02-08T09:04:08.921Z,11.00
2019-02-08T09:07:32.016Z,7.92
2019-02-08T09:10:29.937Z,8.93
2019-02-08T09:13:33.473Z,12.53
2019-02-08T09:16:46.854Z,10.87
2019-02-08T09:19:57.175Z,8.20
2019-02-08T09:23:00.524Z,8.07
2019-02-08T09:26:14.939Z,11.00
2019-02-08T09:29:12.981Z,9.50
2019-02-08T09:32:28.740Z,6.93
2019-02-08T09:35:36.223Z,6.67
2019-02-08T09:38:46.298Z,7.67
2019-02-08T09:42:07.324Z,10.30
2019-02-08T09:45:37.621Z,9.63
2019-02-08T09:49:04.476Z,6.90
2019-02-08T09:52:02.483Z,5.77
2019-02-08T09:55:22.444Z,8.23
2019-02-08T09:58:32.742Z,5.60
2019-02-08T10:01:39.198Z,9.83
2019-02-08T10:04:38.448Z,8.90
2019-02-08T10:07:51.661Z,7.93
2019-02-08T10:10:38.280Z,7.80
2019-02-08T10:13:59.825Z,8.53
2019-02-08T10:17:07.052Z,6.47
2019-02-08T10:20:39.824Z,6.17
2019-02-08T10:24:01.609Z,6.63
2019-02-08T10:27:09.217Z,7.00
2019-02-08T10:30:18.023Z,5.67
2019-02-08T10:33:33.997Z,7.07
2019-02-08T10:36:40.614Z,6.03
2019-02-08T10:40:06.014Z,5.27
2019-02-08T10:43:12.849Z,6.17
2019-02-08T10:46:18.685Z,6.50
2019-02-08T10:49:20.146Z,6.80
2019-02-08T10:52:26.215Z,6.27
2019-02-08T10:55:42.430Z,9.23
2019-02-08T10:58:48.705Z,4.97
2019-02-08T11:02:04.911Z,9.03
2019-02-08T11:05:18.106Z,5.53
2019-02-08T11:08:44.967Z,7.70
2019-02-08T11:12:01.581Z,8.03
2019-02-08T11:15:04.508Z,8.33
2019-02-08T11:18:36.711Z,6.10
2019-02-08T11:21:07.316Z,7.00
2019-02-08T11:23:37.524Z,5.67
2019-02-08T11:26:08.324Z,6.90
2019-02-08T11:28:38.501Z,7.57
2019-02-08T11:31:09.131Z,9.10
2019-02-08T11:33:39.388Z,7.60
2019-02-08T11:36:10.432Z,7.40
2019-02-08T11:38:41.073Z,6.47
2019-02-08T11:41:11.681Z,6.37
2019-02-08T11:43:41.932Z,6.77
2019-02-08T11:46:12.971Z,5.33
2019-02-08T11:48:43.471Z,8.80
2019-02-08T11:51:14.797Z,9.30
2019-02-08T11:53:45.170Z,6.13
2019-02-08T11:56:15.456Z,8.27
2019-02-08T11:58:46.324Z,7.50
2019-02-08T12:01:16.610Z,6.20
2019-02-08T12:03:47.191Z,8.17
2019-02-08T12:06:17.797Z,5.67
2019-02-08T12:08:48.060Z,3.43
2019-02-08T12:11:18.206Z,9.20
2019-02-08T12:13:48.706Z,5.70
2019-02-08T12:16:18.943Z,7.93
2019-02-08T12:18:49.152Z,9.53
2019-02-08T12:21:20.106Z,5.87
2019-02-08T12:23:50.342Z,4.87
2019-02-08T12:26:20.549Z,9.00
2019-02-08T12:28:51.880Z,9.93
2019-02-08T12:31:22.431Z,8.17
2019-02-08T12:33:53.274Z,6.20
2019-02-08T12:36:23.530Z,8.37
2019-02-08T12:38:53.738Z,5.77
2019-02-08T12:41:24.074Z,7.20
2019-02-08T12:43:54.560Z,10.53
2019-02-08T12:46:25.523Z,5.67
2019-02-08T12:48:55.766Z,7.27
2019-02-08T12:51:26.293Z,6.00
2019-02-08T12:53:56.570Z,5.70
2019-02-08T12:56:26.859Z,4.67
2019-02-08T12:58:57.473Z,8.20
2019-02-08T13:01:28.332Z,8.10
2019-02-08T13:03:58.687Z,5.93
2019-02-08T13:06:29.166Z,5.73
2019-02-08T13:08:59.539Z,6.27
2019-02-08T13:11:29.925Z,5.77
2019-02-08T13:14:00.193Z,5.73
2019-02-08T13:16:30.345Z,6.70
2019-02-08T13:19:00.576Z,5.77
2019-02-08T13:21:30.841Z,6.43
2019-02-08T13:24:01.085Z,5.93
2019-02-08T13:26:31.338Z,5.17
2019-02-08T13:29:01.611Z,5.03
2019-02-08T13:31:31.884Z,7.63
2019-02-08T13:34:02.891Z,5.23
2019-02-08T13:36:33.535Z,6.23
2019-02-08T13:39:05.631Z,5.43
2019-02-08T13:41:36.239Z,5.50
2019-02-08T13:44:06.883Z,4.97
2019-02-08T13:46:37.020Z,4.57
2019-02-08T13:49:07.271Z,6.10
2019-02-08T13:51:37.513Z,4.50
2019-02-08T13:54:07.856Z,5.13
2019-02-08T13:56:38.063Z,5.97
2019-02-08T13:59:09.158Z,5.17
2019-02-08T14:01:39.407Z,5.53
2019-02-08T14:04:10.040Z,6.93
2019-02-08T14:06:40.250Z,5.97
2019-02-08T14:09:11.170Z,6.37
2019-02-08T14:11:41.864Z,6.07
2019-02-08T14:14:12.221Z,5.00
2019-02-08T14:16:42.482Z,6.63
2019-02-08T14:19:12.642Z,3.50
2019-02-08T14:21:42.980Z,6.47
2019-02-08T14:24:13.157Z,4.10
2019-02-08T14:26:43.447Z,8.73
2019-02-08T14:29:14.683Z,5.33
2019-02-08T14:31:45.249Z,5.97
2019-02-08T14:34:15.543Z,5.93
2019-02-08T14:36:45.818Z,4.93
2019-02-08T14:39:16.009Z,3.77
2019-02-08T14:41:46.715Z,6.23
2019-02-08T14:44:16.931Z,5.77
2019-02-08T14:46:47.802Z,5.03
2019-02-08T14:49:17.990Z,6.17
2019-02-08T14:51:48.302Z,3.70
2019-02-08T14:54:18.512Z,8.17
2019-02-08T14:56:48.735Z,5.63
2019-02-08T14:59:18.900Z,4.03
2019-02-08T15:01:49.178Z,5.13
2019-02-08T15:04:19.672Z,5.77
2019-02-08T15:06:50.277Z,3.73
2019-02-08T15:09:20.512Z,5.20
2019-02-08T15:11:50.660Z,4.63
2019-02-08T15:14:21.429Z,5.37
2019-02-08T15:16:52.052Z,5.30
2019-02-08T15:19:22.382Z,5.47
2019-02-08T15:21:52.619Z,3.87
2019-02-08T15:24:23.279Z,2.67
2019-02-08T15:26:53.899Z,4.00
2019-02-08T15:29:24.565Z,6.70
2019-02-08T15:31:54.774Z,5.90
2019-02-08T15:34:25.027Z,4.07
2019-02-08T15:36:55.319Z,4.80
2019-02-08T15:39:25.599Z,5.60
2019-02-08T15:41:55.923Z,4.67
2019-02-08T15:44:26.147Z,4.23
2019-02-08T15:46:56.434Z,5.40
2019-02-08T15:49:27.165Z,5.50
2019-02-08T15:51:57.425Z,6.20
2019-02-08T15:54:28.373Z,4.40
2019-02-08T15:56:58.585Z,9.20
2019-02-08T15:59:28.897Z,4.90
2019-02-08T16:01:59.280Z,6.30
2019-02-08T16:04:29.556Z,4.67
2019-02-08T16:06:59.773Z,5.93
2019-02-08T16:09:30.055Z,7.43
2019-02-08T16:12:00.652Z,3.87
2019-02-08T16:14:32.676Z,4.93
2019-02-08T16:17:02.912Z,4.37
2019-02-08T16:19:33.590Z,5.73
2019-02-08T16:22:04.398Z,4.30
2019-02-08T16:24:35.293Z,7.60
2019-02-08T16:27:06.292Z,4.47
2019-02-08T16:29:36.692Z,4.90
2019-02-08T16:32:07.427Z,6.63
2019-02-08T16:34:37.981Z,5.20
2019-02-08T16:37:08.172Z,3.63
2019-02-08T16:39:38.436Z,6.20
2019-02-08T16:42:08.709Z,5.00
2019-02-08T16:44:39.402Z,7.00
2019-02-08T16:47:09.786Z,4.50
2019-02-08T16:49:40.474Z,5.27
2019-02-08T16:52:10.953Z,4.27
2019-02-08T16:54:41.610Z,4.07
2019-02-08T16:57:14.117Z,4.80
2019-02-08T16:59:44.323Z,6.17
2019-02-08T17:02:14.659Z,4.27
2019-02-08T17:04:44.952Z,4.13
2019-02-08T17:07:15.247Z,4.50
2019-02-08T17:09:45.623Z,5.13
2019-02-08T17:12:15.959Z,3.20
2019-02-08T17:14:46.181Z,4.73
2019-02-08T17:17:16.534Z,4.17
2019-02-08T17:19:46.732Z,5.83
2019-02-08T17:22:16.930Z,5.77
2019-02-08T17:24:47.132Z,6.43
2019-02-08T17:27:17.929Z,4.17
2019-02-08T17:29:48.180Z,3.83
2019-02-08T17:32:18.684Z,3.30
2019-02-08T17:34:51.720Z,2.73
2019-02-08T17:37:21.934Z,4.67
2019-02-08T17:39:52.235Z,3.77
2019-02-08T17:42:22.643Z,5.47
2019-02-08T17:44:53.224Z,5.33
2019-02-08T17:47:23.459Z,5.17
2019-02-08T17:49:53.779Z,4.97
2019-02-08T17:52:24.497Z,2.97
2019-02-08T17:54:54.775Z,4.03
2019-02-08T17:57:24.947Z,5.67
2019-02-08T17:59:55.467Z,4.83
2019-02-08T18:02:25.630Z,5.07
2019-02-08T18:04:56.192Z,6.07
2019-02-08T18:07:26.467Z,5.73
2019-02-08T18:09:57.110Z,5.73
2019-02-08T18:12:32.360Z,5.30
2019-02-08T18:15:00.186Z,6.13
2019-02-08T18:17:30.385Z,7.87
2019-02-08T18:20:18.366Z,6.27
2019-02-08T18:22:48.902Z,5.37
2019-02-08T18:25:20.150Z,3.27
2019-02-08T18:27:50.353Z,6.00
2019-02-08T18:30:21.541Z,5.10
2019-02-08T18:32:52.163Z,5.57
2019-02-08T18:35:22.687Z,4.40
2019-02-08T18:37:52.939Z,5.47
2019-02-08T18:40:23.390Z,6.53
2019-02-08T18:42:53.647Z,7.50
2019-02-08T18:45:27.192Z,7.53
2019-02-08T18:47:57.534Z,5.87
2019-02-08T18:50:30.889Z,6.23
2019-02-08T18:53:02.015Z,4.00
2019-02-08T18:55:32.669Z,3.13
2019-02-08T18:58:03.274Z,5.03
2019-02-08T19:00:40.037Z,5.13
2019-02-08T19:03:08.580Z,5.60
2019-02-08T19:05:38.939Z,6.20
2019-02-08T19:08:09.773Z,4.10
2019-02-08T19:10:39.882Z,3.47
2019-02-08T19:13:11.026Z,5.30
2019-02-08T19:15:41.260Z,4.97
2019-02-08T19:18:12.044Z,5.17
2019-02-08T19:20:42.684Z,3.53
2019-02-08T19:23:13.668Z,5.07
2019-02-08T19:25:44.377Z,4.10
2019-02-08T19:28:15.582Z,5.53
2019-02-08T19:30:46.126Z,4.87
2019-02-08T19:33:16.435Z,4.73
2019-02-08T19:35:46.764Z,5.63
2019-02-08T19:38:17.059Z,5.70
2019-02-08T19:40:47.402Z,5.77
2019-02-08T19:43:17.961Z,7.30
2019-02-08T19:45:49.003Z,8.63
2019-02-08T19:48:20.774Z,6.37
2019-02-08T19:50:51.186Z,8.83
2019-02-08T19:53:21.496Z,9.40
2019-02-08T19:55:52.143Z,7.83
2019-02-08T19:58:22.388Z,6.87
2019-02-08T20:00:52.719Z,14.20
2019-02-08T20:03:23.311Z,7.60
2019-02-08T20:05:54.319Z,6.53
2019-02-08T20:08:24.693Z,7.80
2019-02-08T20:10:54.923Z,11.23
2019-02-08T20:13:25.543Z,8.60
2019-02-08T20:15:55.879Z,12.47
2019-02-08T20:18:26.238Z,9.57
2019-02-08T20:20:56.433Z,9.33
2019-02-08T20:23:26.764Z,8.33
2019-02-08T20:25:56.986Z,7.90
2019-02-08T20:28:28.094Z,7.47
2019-02-08T20:30:58.375Z,7.67
2019-02-08T20:33:28.648Z,8.37
2019-02-08T20:35:58.920Z,8.10
2019-02-08T20:38:29.135Z,10.10
2019-02-08T20:40:59.839Z,7.37
2019-02-08T20:43:30.652Z,8.40
2019-02-08T20:46:00.674Z,8.13
2019-02-08T20:48:31.020Z,9.07
2019-02-08T20:51:01.234Z,8.30
2019-02-08T20:53:31.538Z,7.97
2019-02-08T20:56:01.687Z,8.67
2019-02-08T20:58:32.066Z,8.23
2019-02-08T21:01:03.017Z,9.87
2019-02-08T21:03:33.832Z,8.40
2019-02-08T21:06:04.426Z,8.37
2019-02-08T21:08:34.627Z,7.30
2019-02-08T21:11:05.249Z,8.30
2019-02-08T21:13:35.748Z,8.00
2019-02-08T21:16:06.004Z,10.83
2019-02-08T21:18:36.172Z,7.73
2019-02-08T21:21:07.098Z,9.37
2019-02-08T21:23:37.334Z,5.30
2019-02-08T21:26:07.587Z,10.03
2019-02-08T21:28:38.048Z,5.97
2019-02-08T21:31:08.250Z,6.03
2019-02-08T21:33:38.466Z,5.03
2019-02-08T21:36:09.020Z,5.77
2019-02-08T21:38:39.127Z,4.83
2019-02-08T21:41:09.735Z,5.40
2019-02-08T21:43:40.309Z,7.60
2019-02-08T21:46:10.720Z,5.93
2019-02-08T21:48:40.932Z,6.53
2019-02-08T21:51:11.545Z,5.87
2019-02-08T21:53:41.921Z,7.93
2019-02-08T21:56:12.910Z,6.90
2019-02-08T21:58:43.137Z,4.23
2019-02-08T22:01:14.006Z,7.43
2019-02-08T22:03:44.560Z,5.70
2019-02-08T22:06:14.957Z,3.77
2019-02-08T22:08:45.197Z,4.43
2019-02-08T22:11:15.724Z,4.17
2019-02-08T22:13:46.011Z,5.00
2019-02-08T22:16:16.259Z,4.47
2019-02-08T22:18:46.780Z,1.83
2019-02-08T22:21:16.987Z,2.23
2019-02-08T22:23:47.641Z,2.40
2019-02-08T22:26:17.857Z,2.70
2019-02-08T22:28:48.995Z,2.53
2019-02-08T22:31:19.207Z,1.77
2019-02-08T22:33:49.436Z,3.23
2019-02-08T22:36:20.232Z,1.50
2019-02-08T22:38:50.447Z,3.50
2019-02-08T22:41:20.693Z,3.30
2019-02-08T22:43:50.883Z,3.93
2019-02-08T22:46:21.462Z,3.07
2019-02-08T22:48:51.649Z,3.80
2019-02-08T22:51:21.886Z,4.50
2019-02-08T22:53:52.087Z,4.13
2019-02-08T22:56:22.256Z,3.40
2019-02-08T22:58:53.535Z,4.73
2019-02-08T23:01:34.019Z,2.97
2019-02-08T23:04:05.907Z,3.77
2019-02-08T23:06:44.279Z,2.73
2019-02-08T23:09:22.057Z,5.37
2019-02-08T23:11:52.238Z,6.23
2019-02-08T23:14:22.720Z,3.87
2019-02-08T23:16:52.880Z,5.03
2019-02-08T23:19:23.235Z,5.27
2019-02-08T23:21:53.306Z,6.07
2019-02-08T23:24:23.646Z,5.13
2019-02-08T23:26:54.575Z,3.67
2019-02-08T23:29:29.902Z,3.27
2019-02-08T23:31:56.911Z,5.77
2019-02-08T23:34:27.213Z,8.30
2019-02-08T23:36:57.388Z,7.07
2019-02-08T23:39:27.620Z,6.97
2019-02-08T23:41:57.784Z,8.97
2019-02-08T23:44:28.358Z,9.63
2019-02-08T23:46:58.552Z,7.13
2019-02-08T23:49:28.815Z,10.23
2019-02-08T23:51:58.919Z,9.47
2019-02-08T23:54:29.145Z,8.87
2019-02-08T23:56:59.671Z,8.43
2019-02-08T23:59:37.699Z,9.47
